Time;durP1;ratioP1;P1;durP2;ratioP2;P2;SDS_P1;SDS_P2;PMS_P1;PMS_P2;Temp;Humidity;BMP_temperature;BMP_pressure;BME280_temperature;BME280_humidity;BME280_pressure;Samples;Min_cycle;Max_cycle;Signal;HPM_P1;HPM_P2
2022/06/01 00:00:25;;;;;;;19.27;7.78;;;;;;;19.74;81.65;98632.09;5124572;28;20035;-90
2022/06/01 00:02:52;;;;;;;21.52;7.88;;;;;;;19.86;81.71;98656.41;5122856;28;20044;-90
2022/06/01 00:05:19;;;;;;;14.95;7.13;;;;;;;19.85;81.77;98643.03;5124798;28;20093;-91
2022/06/01 00:07:45;;;;;;;25.98;9.63;;;;;;;19.78;82.21;98642.56;5123704;28;20040;-91
2022/06/01 00:10:11;;;;;;;20.25;8.55;;;;;;;19.74;82.22;98643.75;5117611;28;20041;-91
2022/06/01 00:12:37;;;;;;;16.27;7.75;;;;;;;19.71;82.34;98638.53;5122172;28;20039;-90
2022/06/01 00:15:04;;;;;;;19.45;7.93;;;;;;;19.73;82.72;98647.38;5122750;28;20427;-91
2022/06/01 00:17:31;;;;;;;16.83;7.78;;;;;;;19.68;82.58;98641.41;5117852;28;20036;-90
2022/06/01 00:19:57;;;;;;;18.27;7.93;;;;;;;19.54;82.78;98626.16;5120619;28;20054;-92
2022/06/01 00:22:22;;;;;;;16.77;7.60;;;;;;;19.68;83.08;98655.75;5121220;28;20483;-91
2022/06/01 00:24:48;;;;;;;16.92;7.78;;;;;;;19.62;83.14;98642.66;5119556;28;20047;-91
2022/06/01 00:27:16;;;;;;;20.83;8.25;;;;;;;19.64;83.75;98653.38;5121893;28;20080;-90
2022/06/01 00:29:42;;;;;;;20.15;7.82;;;;;;;19.61;83.29;98643.66;5123618;28;20040;-91
2022/06/01 00:32:11;;;;;;;17.63;7.60;;;;;;;19.60;83.54;98655.38;5123449;28;20047;-92
2022/06/01 00:34:39;;;;;;;19.95;8.35;;;;;;;19.60;83.88;98646.44;5122618;28;20039;-90
2022/06/01 00:37:05;;;;;;;19.52;8.20;;;;;;;19.53;83.92;98650.53;5106662;27;20432;-90
2022/06/01 00:39:31;;;;;;;14.32;8.10;;;;;;;19.47;84.20;98651.78;5102048;28;20031;-90
2022/06/01 00:42:08;;;;;;;16.23;7.63;;;;;;;19.45;84.82;98661.78;5097890;28;20044;-91
2022/06/01 00:44:34;;;;;;;13.93;7.95;;;;;;;19.34;85.40;98648.16;5108940;28;20078;-89
2022/06/01 00:46:59;;;;;;;20.50;8.18;;;;;;;19.23;86.18;98643.44;5113447;28;20035;-89
2022/06/01 00:49:26;;;;;;;16.52;7.97;;;;;;;19.13;86.05;98637.81;5105854;28;20092;-89
2022/06/01 00:51:54;;;;;;;18.83;7.53;;;;;;;19.14;87.28;98652.13;5103749;28;20066;-91
2022/06/01 00:54:24;;;;;;;21.75;8.00;;;;;;;19.08;87.87;98646.19;5108307;28;20089;-92
2022/06/01 00:56:55;;;;;;;13.80;7.90;;;;;;;19.14;87.15;98646.75;5104116;28;20048;-90
2022/06/01 00:59:24;;;;;;;15.75;8.35;;;;;;;19.15;87.48;98657.44;5107357;28;20089;-91
2022/06/01 01:01:52;;;;;;;17.35;8.70;;;;;;;19.01;87.76;98647.53;5105357;28;20400;-91
2022/06/01 01:04:19;;;;;;;20.42;8.25;;;;;;;19.00;87.97;98653.88;5110288;28;20032;-91
2022/06/01 01:06:45;;;;;;;18.63;8.60;;;;;;;18.89;88.83;98640.22;5103106;28;20032;-90
2022/06/01 01:09:13;;;;;;;23.15;9.05;;;;;;;18.88;88.69;98651.97;5113316;27;20112;-91
2022/06/01 01:11:46;;;;;;;19.25;8.65;;;;;;;18.78;88.91;98653.47;5107578;28;20558;-92
2022/06/01 01:14:14;;;;;;;15.40;8.50;;;;;;;18.70;89.46;98650.41;5109867;28;20044;-90
2022/06/01 01:16:40;;;;;;;17.63;7.85;;;;;;;18.67;89.47;98659.50;5105573;28;20496;-91
2022/06/01 01:19:16;;;;;;;18.30;8.23;;;;;;;18.52;90.13;98650.56;5109401;28;20555;-91
2022/06/01 01:21:54;;;;;;;17.02;8.40;;;;;;;18.46;90.55;98656.34;5112067;28;20032;-91
2022/06/01 01:24:27;;;;;;;20.98;9.30;;;;;;;18.45;91.05;98660.84;5103171;28;20048;-93
2022/06/01 01:26:56;;;;;;;17.77;8.05;;;;;;;18.37;91.72;98663.16;5101865;28;20131;-92
2022/06/01 01:29:32;;;;;;;19.50;9.55;;;;;;;18.37;92.19;98668.53;5109221;28;20070;-91
2022/06/01 01:31:58;;;;;;;16.83;8.27;;;;;;;18.24;92.50;98660.31;5105740;28;20059;-92
2022/06/01 01:34:24;;;;;;;16.98;8.63;;;;;;;18.22;92.99;98667.63;5103478;28;20118;-90
2022/06/01 01:36:54;;;;;;;17.23;8.73;;;;;;;18.10;93.00;98651.34;5099210;28;20067;-90
2022/06/01 01:39:19;;;;;;;17.33;8.48;;;;;;;18.08;93.27;98662.19;5113416;28;20035;-89
2022/06/01 01:41:47;;;;;;;19.33;9.55;;;;;;;18.02;93.74;98654.47;5110709;28;20113;-92
2022/06/01 01:44:18;;;;;;;17.92;8.98;;;;;;;18.03;93.45;98665.16;5112794;28;20032;-91
2022/06/01 01:46:47;;;;;;;14.15;8.63;;;;;;;17.97;94.22;98657.44;5106337;28;20050;-90
2022/06/01 01:49:13;;;;;;;;;;;;;;;18.05;94.48;98675.84;5110921;28;20122;-92
2022/06/01 01:51:39;;;;;;;19.33;8.75;;;;;;;17.96;94.61;98663.78;5100140;28;20411;-91
2022/06/01 01:54:13;;;;;;;17.27;8.63;;;;;;;17.95;95.15;98656.66;5099559;28;20051;-92
2022/06/01 01:57:05;;;;;;;16.35;9.23;;;;;;;18.00;94.98;98667.16;5101993;28;20127;-93
2022/06/01 01:59:47;;;;;;;18.75;8.75;;;;;;;17.97;95.26;98667.34;5110103;28;20515;-91
2022/06/01 02:02:20;;;;;;;17.38;9.07;;;;;;;17.94;95.23;98657.63;5101533;28;20051;-92
2022/06/01 02:07:58;;;;;;;26.20;8.98;;;;;;;18.08;95.19;98662.19;5091727;27;20122;-91
2022/06/01 02:13:28;;;;;;;19.90;8.90;;;;;;;18.07;94.67;98668.53;5111478;27;20384;-91
2022/06/01 02:15:56;;;;;;;20.38;8.65;;;;;;;18.02;94.77;98665.22;5112126;28;20035;-90
2022/06/01 02:18:31;;;;;;;22.77;9.23;;;;;;;17.98;95.37;98655.63;5112318;28;20072;-91
2022/06/01 02:21:01;;;;;;;18.30;9.32;;;;;;;18.17;95.26;98666.16;5112312;28;20075;-90
2022/06/01 02:23:31;;;;;;;20.20;8.75;;;;;;;18.10;94.66;98644.13;5111810;28;20042;-91
2022/06/01 02:25:59;;;;;;;16.90;8.88;;;;;;;18.19;94.71;98662.41;5112116;28;20397;-91
2022/06/01 02:28:27;;;;;;;14.90;8.63;;;;;;;18.19;94.31;98662.41;5109995;28;20127;-91
2022/06/01 02:30:54;;;;;;;16.73;8.70;;;;;;;18.18;93.88;98671.44;5111906;28;20072;-91
2022/06/01 02:33:26;;;;;;;14.73;8.50;;;;;;;18.06;94.48;98647.94;5112059;28;20362;-92
2022/06/01 02:35:54;;;;;;;16.70;8.35;;;;;;;18.00;94.51;98651.00;5111174;28;20504;-91
2022/06/01 02:38:23;;;;;;;16.20;8.60;;;;;;;17.99;94.88;98654.66;5112000;28;20047;-90
2022/06/01 02:40:49;;;;;;;21.80;9.43;;;;;;;17.97;95.61;98661.97;5111780;28;20378;-92
2022/06/01 02:43:15;;;;;;;24.15;9.35;;;;;;;17.89;95.32;98640.00;5111503;28;20102;-93
2022/06/01 02:45:42;;;;;;;16.15;8.80;;;;;;;17.89;96.19;98645.41;5111598;28;20040;-93
2022/06/01 02:48:08;;;;;;;18.08;9.10;;;;;;;17.84;96.74;98641.16;5111555;28;20040;-91
2022/06/01 02:50:36;;;;;;;20.27;9.10;;;;;;;17.96;96.86;98660.25;5111266;28;20378;-92
2022/06/01 02:53:03;;;;;;;20.42;9.10;;;;;;;17.88;96.95;98638.31;5107448;28;20040;-91
2022/06/01 02:55:30;;;;;;;22.05;10.23;;;;;;;17.91;96.64;98636.28;5111103;28;20114;-91
2022/06/01 02:57:58;;;;;;;24.70;9.18;;;;;;;18.06;96.35;98647.94;5110991;28;20036;-92
2022/06/01 03:00:26;;;;;;;21.70;9.18;;;;;;;18.12;96.13;98658.34;5110981;28;20051;-90
2022/06/01 03:02:56;;;;;;;18.42;9.18;;;;;;;18.22;95.33;98662.25;5111450;28;20392;-91
2022/06/01 03:05:23;;;;;;;18.40;8.85;;;;;;;18.27;95.08;98653.88;5111079;28;20105;-92
2022/06/01 03:07:50;;;;;;;23.70;9.75;;;;;;;18.25;94.99;98653.09;5111277;28;20043;-91
2022/06/01 03:10:16;;;;;;;23.05;10.05;;;;;;;18.31;94.31;98657.25;5111171;28;20093;-91
2022/06/01 03:12:42;;;;;;;21.45;10.40;;;;;;;18.40;94.11;98664.78;5110428;28;20048;-92
2022/06/01 03:15:10;;;;;;;19.55;8.75;;;;;;;18.33;93.02;98658.03;5111084;28;20036;-92
2022/06/01 03:17:36;;;;;;;20.38;9.18;;;;;;;18.35;93.05;98656.13;5111365;28;20131;-91
2022/06/01 03:20:08;;;;;;;24.63;10.30;;;;;;;18.40;92.79;98675.53;5111049;28;20055;-92
2022/06/01 03:22:33;;;;;;;19.35;10.27;;;;;;;18.33;93.17;98666.13;5106720;28;20075;-92
2022/06/01 03:24:59;;;;;;;20.13;9.27;;;;;;;18.27;93.32;98662.81;5096882;28;20043;-91
2022/06/01 03:27:25;;;;;;;16.65;9.15;;;;;;;18.34;93.81;98676.78;5097534;28;20032;-93
2022/06/01 03:29:51;;;;;;;23.35;9.82;;;;;;;18.24;93.65;98670.22;5097774;28;20115;-92
2022/06/01 03:32:16;;;;;;;16.90;8.75;;;;;;;18.20;93.93;98672.22;5097351;28;20071;-93
2022/06/01 03:34:42;;;;;;;18.50;9.55;;;;;;;18.12;94.49;98666.44;5097278;28;20405;-91
2022/06/01 03:37:09;;;;;;;18.15;9.65;;;;;;;18.08;94.31;98675.63;5097436;28;20051;-92
2022/06/01 03:39:35;;;;;;;20.45;10.15;;;;;;;18.01;94.85;98679.66;5097264;28;20089;-92
2022/06/01 03:42:01;;;;;;;21.95;10.00;;;;;;;17.88;95.48;98674.13;5097250;28;20036;-91
2022/06/01 03:47:27;;;;;;;19.10;9.27;;;;;;;17.75;95.83;98679.31;5092097;27;20377;-94
2022/06/01 03:49:54;;;;;;;22.00;9.95;;;;;;;17.64;96.15;98676.38;5091301;28;20508;-92
2022/06/01 03:52:20;;;;;;;21.55;10.10;;;;;;;17.65;95.89;98673.63;5092013;28;20044;-92
2022/06/01 03:54:45;;;;;;;20.73;10.75;;;;;;;17.64;96.30;98682.63;5092127;28;20439;-93
2022/06/01 03:57:12;;;;;;;19.02;10.15;;;;;;;17.60;96.91;98689.13;5091895;28;20155;-93
2022/06/01 03:59:38;;;;;;;24.52;10.43;;;;;;;17.55;96.89;98690.38;5091943;28;20040;-93
2022/06/01 04:02:06;;;;;;;19.17;10.48;;;;;;;17.43;97.20;98675.78;5091700;28;20443;-91
2022/06/01 04:04:34;;;;;;;20.85;10.60;;;;;;;17.53;97.53;98694.97;5091540;28;20048;-93
2022/06/01 04:07:00;;;;;;;23.40;11.03;;;;;;;17.52;98.34;98703.97;5091675;28;20036;-94
2022/06/01 04:09:29;;;;;;;28.77;11.38;;;;;;;17.50;98.22;98700.50;5091646;28;20116;-92
2022/06/01 04:11:55;;;;;;;24.00;10.40;;;;;;;17.45;97.89;98696.25;5091311;28;20051;-93
2022/06/01 04:14:21;;;;;;;22.35;9.98;;;;;;;17.52;97.59;98703.97;5091873;28;20048;-92
2022/06/01 04:16:47;;;;;;;24.85;10.43;;;;;;;17.55;98.08;98714.56;5092152;28;20050;-93
2022/06/01 04:19:13;;;;;;;19.35;10.25;;;;;;;17.50;98.10;98709.44;5091628;28;20048;-92
2022/06/01 04:21:43;;;;;;;19.25;10.15;;;;;;;17.44;98.55;98702.59;5091671;28;20443;-92
2022/06/01 04:24:12;;;;;;;23.13;10.60;;;;;;;17.55;98.62;98711.88;5091490;28;20045;-93
2022/06/01 04:26:38;;;;;;;20.60;11.10;;;;;;;17.64;98.51;98720.28;5091096;28;20064;-93
2022/06/01 04:29:04;;;;;;;24.38;11.88;;;;;;;17.68;98.26;98725.50;5091209;28;20055;-92
2022/06/01 04:31:30;;;;;;;19.85;11.77;;;;;;;17.74;97.75;98726.00;5091055;28;20032;-93
2022/06/01 04:33:56;;;;;;;24.05;12.75;;;;;;;17.65;98.48;98711.28;5091263;28;20044;-94
2022/06/01 04:36:22;;;;;;;27.58;12.77;;;;;;;17.85;98.07;98722.75;5091605;28;20538;-92
2022/06/01 04:38:49;;;;;;;21.17;12.00;;;;;;;17.91;97.83;98729.56;5091148;28;20036;-92
2022/06/01 04:41:15;;;;;;;23.85;12.02;;;;;;;17.99;97.65;98735.38;5090632;28;20068;-93
2022/06/01 04:43:41;;;;;;;28.13;13.30;;;;;;;18.07;96.73;98733.13;5091093;28;20044;-92
2022/06/01 04:46:07;;;;;;;25.75;11.98;;;;;;;18.15;96.64;98730.84;5090376;28;20401;-94
2022/06/01 04:48:33;;;;;;;24.48;12.23;;;;;;;18.28;96.01;98741.75;5091261;28;20048;-93
2022/06/01 04:50:59;;;;;;;25.75;12.57;;;;;;;18.26;95.63;98735.59;5090901;28;20037;-93
2022/06/01 04:53:25;;;;;;;28.40;13.27;;;;;;;18.22;94.98;98745.69;5090805;28;20055;-92
2022/06/01 04:55:52;;;;;;;23.70;12.25;;;;;;;18.30;94.96;98741.66;5091383;28;20044;-93
2022/06/01 04:58:18;;;;;;;25.90;12.50;;;;;;;18.47;94.04;98728.91;5080109;28;20136;-93
2022/06/01 05:00:45;;;;;;;30.80;13.35;;;;;;;18.97;91.20;98745.69;5077293;28;20127;-92
2022/06/01 05:03:11;;;;;;;21.58;13.15;;;;;;;19.42;87.65;98741.06;5077306;28;20127;-93
2022/06/01 05:05:37;;;;;;;29.02;11.75;;;;;;;19.92;85.15;98748.72;5077413;28;20128;-93
2022/06/01 05:08:05;;;;;;;22.00;11.52;;;;;;;20.15;81.56;98737.28;5076865;28;20393;-92
2022/06/01 05:10:31;;;;;;;24.55;11.25;;;;;;;20.26;81.15;98725.75;5077231;28;20048;-93
2022/06/01 05:12:59;;;;;;;21.42;11.23;;;;;;;20.63;78.82;98737.63;5077545;28;20039;-93
2022/06/01 05:15:25;;;;;;;20.52;10.27;;;;;;;20.87;77.99;98748.59;5077132;28;20519;-94
2022/06/01 05:17:51;;;;;;;23.83;11.40;;;;;;;21.10;76.72;98743.38;5077547;28;20075;-95
2022/06/01 05:20:17;;;;;;;22.90;10.80;;;;;;;21.35;74.10;98739.81;5077447;28;20128;-95
2022/06/01 05:22:43;;;;;;;28.75;10.98;;;;;;;21.42;74.33;98741.13;5077260;28;20041;-94
2022/06/01 05:25:09;;;;;;;26.17;11.00;;;;;;;21.65;73.77;98746.72;5077189;28;20090;-95
2022/06/01 05:27:36;;;;;;;26.00;10.48;;;;;;;21.79;72.62;98735.72;5077092;28;20044;-93
2022/06/01 05:30:04;;;;;;;25.02;11.38;;;;;;;21.88;71.08;98745.91;5076962;28;20040;-93
2022/06/01 05:32:30;;;;;;;;;;;;;;;22.09;70.99;98753.41;5077477;28;20040;-94
2022/06/01 05:34:57;;;;;;;21.52;10.40;;;;;;;22.09;71.08;98742.56;5077327;28;19920;-94
2022/06/01 05:37:23;;;;;;;21.65;8.85;;;;;;;22.10;70.75;98738.88;5076835;28;20040;-94
2022/06/01 05:39:49;;;;;;;24.92;9.88;;;;;;;22.32;69.90;98752.56;5077163;28;20173;-94
2022/06/01 05:42:15;;;;;;;18.75;10.48;;;;;;;21.76;70.50;98738.69;5077464;28;20029;-93
2022/06/01 05:44:41;;;;;;;17.83;9.57;;;;;;;21.96;71.08;98750.72;5077177;28;20040;-93
2022/06/01 05:47:08;;;;;;;24.45;10.32;;;;;;;21.74;71.74;98751.47;5077009;28;20127;-93
2022/06/01 05:49:34;;;;;;;24.98;9.57;;;;;;;21.60;72.60;98747.06;5076981;28;20036;-94
2022/06/01 05:52:00;;;;;;;21.05;9.57;;;;;;;21.64;72.62;98753.97;5077158;28;20056;-93
2022/06/01 05:54:26;;;;;;;23.77;10.75;;;;;;;21.86;72.00;98758.69;5077073;28;20033;-95
2022/06/01 05:56:51;;;;;;;20.27;10.75;;;;;;;21.65;72.83;98773.78;5076392;28;20082;-93
2022/06/01 05:59:17;;;;;;;19.95;9.32;;;;;;;21.68;73.51;98768.13;5076886;28;20072;-95
2022/06/01 06:01:43;;;;;;;18.67;10.00;;;;;;;21.89;72.32;98773.84;5076743;28;20444;-95
2022/06/01 06:04:10;;;;;;;25.42;10.38;;;;;;;21.56;73.38;98771.72;5076951;28;20074;-95
2022/06/01 06:06:36;;;;;;;18.23;8.82;;;;;;;21.71;72.35;98746.28;5076366;28;20490;-94
2022/06/01 06:09:05;;;;;;;16.10;9.18;;;;;;;21.98;72.23;98745.22;5075332;28;20045;-95
2022/06/01 06:11:33;;;;;;;22.95;10.65;;;;;;;22.43;69.98;98759.03;5076720;28;20055;-94
2022/06/01 06:13:59;;;;;;;22.02;10.65;;;;;;;22.48;68.39;98736.00;5076598;28;20124;-94
2022/06/01 06:16:27;;;;;;;21.00;10.63;;;;;;;22.62;69.32;98747.63;5077612;28;20063;-95
2022/06/01 06:18:56;;;;;;;22.65;10.10;;;;;;;22.78;68.13;98753.59;5076688;28;20072;-94
2022/06/01 06:21:23;;;;;;;;;;;;;;;23.05;67.65;98769.59;5076810;28;20139;-94
2022/06/01 06:23:49;;;;;;;23.67;10.40;;;;;;;22.95;67.42;98755.00;5076635;28;19921;-95
2022/06/01 06:26:15;;;;;;;22.67;10.88;;;;;;;22.76;67.62;98767.25;5076511;28;20037;-93
2022/06/01 06:28:43;;;;;;;23.92;10.73;;;;;;;22.25;70.08;98781.09;5077778;28;20045;-93
2022/06/01 06:31:08;;;;;;;20.88;10.68;;;;;;;22.17;69.41;98767.22;5078359;28;20043;-96
2022/06/01 06:33:34;;;;;;;25.90;10.38;;;;;;;22.19;69.96;98757.16;5079629;28;20135;-96
2022/06/01 06:36:02;;;;;;;29.17;9.70;;;;;;;22.61;68.15;98760.31;5081412;28;20040;-94
2022/06/01 06:38:31;;;;;;;20.10;9.70;;;;;;;22.96;66.54;98754.84;5080870;28;20063;-94
2022/06/01 06:40:59;;;;;;;23.08;9.75;;;;;;;22.71;67.55;98765.91;5081577;28;20047;-92
2022/06/01 06:43:27;;;;;;;22.63;8.98;;;;;;;22.84;67.07;98761.25;5080005;28;20068;-95
2022/06/01 06:45:56;;;;;;;21.48;9.20;;;;;;;22.63;68.00;98784.59;5080297;28;20075;-93
2022/06/01 06:48:22;;;;;;;21.40;9.30;;;;;;;22.58;68.29;98763.28;5079592;28;20052;-93
2022/06/01 06:50:48;;;;;;;21.30;10.02;;;;;;;22.48;68.12;98748.69;5081031;28;20379;-92
2022/06/01 06:53:15;;;;;;;17.52;9.38;;;;;;;22.65;68.37;98761.81;5079527;28;20056;-94
2022/06/01 06:55:42;;;;;;;21.10;8.75;;;;;;;22.88;67.90;98749.19;5079826;28;20037;-92
2022/06/01 06:58:09;;;;;;;20.70;8.20;;;;;;;23.32;65.76;98761.13;5080623;28;20056;-92
2022/06/01 07:00:35;;;;;;;15.07;7.65;;;;;;;23.56;64.66;98754.72;5081906;28;20044;-93
2022/06/01 07:03:01;;;;;;;13.70;7.80;;;;;;;23.84;61.74;98758.78;5080185;28;20547;-91
2022/06/01 07:08:28;;;;;;;17.33;8.60;;;;;;;24.22;60.29;98762.88;5119840;27;20368;-92
2022/06/01 07:10:54;;;;;;;17.58;8.10;;;;;;;23.88;61.49;98767.56;5094112;28;20028;-92
2022/06/01 07:13:21;;;;;;;20.90;8.15;;;;;;;23.72;62.32;98767.88;5097027;28;20051;-94
2022/06/01 07:15:47;;;;;;;19.88;8.15;;;;;;;23.42;63.82;98749.50;5095209;28;20047;-92
2022/06/01 07:18:13;;;;;;;20.00;7.55;;;;;;;23.84;63.46;98774.22;5090100;28;20036;-94
2022/06/01 07:20:39;;;;;;;16.95;7.03;;;;;;;23.98;61.99;98763.97;5097401;28;20431;-92
2022/06/01 07:23:05;;;;;;;15.90;7.28;;;;;;;24.10;62.20;98750.34;5096185;28;20048;-94
2022/06/01 07:25:33;;;;;;;19.02;7.43;;;;;;;24.38;60.28;98748.88;5095904;28;20092;-93
2022/06/01 07:27:58;;;;;;;16.48;7.10;;;;;;;24.44;59.67;98742.06;5097161;28;20039;-91
2022/06/01 07:30:25;;;;;;;20.83;7.30;;;;;;;24.45;59.05;98739.22;5096987;28;20040;-94
2022/06/01 07:32:51;;;;;;;16.85;6.50;;;;;;;24.65;58.72;98750.28;5096524;28;20090;-94
2022/06/01 07:35:18;;;;;;;18.13;6.85;;;;;;;24.88;58.32;98756.47;5097416;28;20044;-93
2022/06/01 07:44:05;;;;;;;18.00;6.40;;;;;;;25.25;55.17;98754.16;5109057;27;20368;-93
2022/06/01 07:46:32;;;;;;;15.98;5.93;;;;;;;25.23;53.81;98734.38;5077105;28;20040;-93
2022/06/01 07:48:58;;;;;;;13.95;6.15;;;;;;;25.28;54.86;98761.19;5075866;28;20100;-92
2022/06/01 07:51:24;;;;;;;13.30;6.00;;;;;;;25.44;55.01;98753.41;5077250;28;20079;-93
2022/06/01 07:53:50;;;;;;;17.00;5.55;;;;;;;25.30;51.43;98724.66;5074551;28;20115;-93
2022/06/01 07:56:15;;;;;;;12.07;5.00;;;;;;;25.27;52.38;98737.69;5072850;28;20158;-93
2022/06/01 07:58:41;;;;;;;14.50;5.65;;;;;;;25.27;50.08;98735.81;5072397;28;20048;-92
2022/06/01 08:01:08;;;;;;;13.48;4.70;;;;;;;25.44;47.49;98728.91;5071981;28;20481;-92
2022/06/01 08:03:35;;;;;;;13.70;5.13;;;;;;;25.74;49.85;98746.19;5071535;28;20037;-93
2022/06/01 08:06:01;;;;;;;13.60;5.47;;;;;;;25.97;48.79;98747.72;5073998;28;20083;-95
2022/06/01 08:08:27;;;;;;;12.80;4.95;;;;;;;25.98;47.75;98745.84;5072732;28;20044;-94
2022/06/01 08:10:52;;;;;;;10.68;4.90;;;;;;;26.19;47.74;98743.03;5071950;28;20044;-92
2022/06/01 08:13:19;;;;;;;10.50;4.63;;;;;;;26.28;46.98;98742.16;5072018;28;20482;-95
2022/06/01 08:15:46;;;;;;;9.70;4.45;;;;;;;26.27;45.24;98745.91;5071751;28;20310;-92
2022/06/01 08:18:16;;;;;;;14.27;5.37;;;;;;;26.09;46.48;98723.06;5071116;28;20067;-93
2022/06/01 08:20:43;;;;;;;11.00;4.43;;;;;;;26.33;44.34;98739.03;5072183;28;20071;-94
2022/06/01 08:23:09;;;;;;;12.43;4.50;;;;;;;26.51;44.33;98737.31;5072657;28;20048;-93
2022/06/01 08:25:35;;;;;;;9.00;3.80;;;;;;;26.24;41.77;98738.03;5070572;28;20067;-92
2022/06/01 08:28:02;;;;;;;13.13;4.40;;;;;;;26.21;42.12;98739.16;5071175;28;20371;-93
2022/06/01 08:30:30;;;;;;;11.68;4.25;;;;;;;25.44;43.28;98742.50;5070168;28;20040;-92
2022/06/01 08:32:56;;;;;;;7.55;4.05;;;;;;;25.69;43.28;98751.19;5072270;28;20048;-93
2022/06/01 08:35:29;;;;;;;13.45;5.15;;;;;;;25.60;44.04;98733.81;5071909;28;20079;-93
2022/06/01 08:37:55;;;;;;;13.43;4.18;;;;;;;25.94;43.00;98760.78;5070953;28;20123;-93
2022/06/01 08:40:24;;;;;;;11.05;4.28;;;;;;;26.08;42.55;98732.25;5072939;28;20496;-93
2022/06/01 08:42:55;;;;;;;11.48;4.20;;;;;;;26.56;41.60;98740.50;5071263;28;20048;-93
2022/06/01 08:45:22;;;;;;;11.82;5.07;;;;;;;26.82;43.07;98750.81;5070492;28;20359;-94
2022/06/01 08:47:48;;;;;;;10.52;4.38;;;;;;;26.70;41.76;98738.34;5070738;28;20120;-94
2022/06/01 08:50:18;;;;;;;11.70;4.45;;;;;;;26.84;42.96;98738.75;5071665;28;20036;-94
2022/06/01 08:52:46;;;;;;;9.23;4.25;;;;;;;27.14;42.10;98739.56;5070677;28;20068;-93
2022/06/01 08:58:16;;;;;;;10.63;4.20;;;;;;;27.38;40.28;98746.41;5132953;27;20864;-92
2022/06/01 09:00:47;;;;;;;9.07;4.22;;;;;;;27.27;41.19;98742.00;5132562;27;20096;-91
2022/06/01 09:03:20;;;;;;;10.30;3.92;;;;;;;27.40;41.37;98749.88;5134489;27;20050;-92
2022/06/01 09:05:49;;;;;;;9.93;4.05;;;;;;;27.33;40.52;98743.28;5135317;27;20043;-93
2022/06/01 09:08:25;;;;;;;9.50;4.80;;;;;;;27.24;39.31;98726.78;5132855;27;20130;-92
2022/06/01 09:11:06;;;;;;;12.90;4.65;;;;;;;27.53;41.38;98738.59;5133831;27;20047;-93
2022/06/01 09:13:40;;;;;;;11.48;4.25;;;;;;;27.61;39.75;98745.03;5130938;27;20177;-95
2022/06/01 09:16:12;;;;;;;13.07;4.30;;;;;;;27.78;40.29;98740.66;5132982;27;20043;-93
2022/06/01 09:18:42;;;;;;;9.65;4.10;;;;;;;27.89;40.65;98731.41;5132898;27;20092;-92
2022/06/01 09:24:23;;;;;;;12.93;4.43;;;;;;;28.02;40.67;98752.94;5072591;27;20380;-91
2022/06/01 09:26:55;;;;;;;8.55;4.45;;;;;;;28.17;39.61;98740.44;5067408;28;20079;-91
2022/06/01 09:29:22;;;;;;;11.80;4.72;;;;;;;28.01;39.87;98748.44;5072146;28;20055;-93
2022/06/01 09:31:54;;;;;;;12.15;4.43;;;;;;;28.04;40.45;98749.03;5071667;28;20363;-92
2022/06/01 09:34:26;;;;;;;11.65;4.78;;;;;;;28.17;41.22;98745.03;5070067;28;20044;-92
2022/06/01 09:37:05;;;;;;;12.50;5.03;;;;;;;28.13;40.44;98749.09;5071662;28;20044;-93
2022/06/01 09:39:35;;;;;;;11.00;4.70;;;;;;;28.04;40.77;98738.09;5071898;28;20041;-93
2022/06/01 09:42:12;;;;;;;13.23;4.82;;;;;;;27.81;41.66;98745.78;5071964;28;20064;-91
2022/06/01 09:44:44;;;;;;;13.15;5.13;;;;;;;27.52;41.74;98735.03;5067964;28;20119;-89
2022/06/01 09:47:25;;;;;;;12.25;4.78;;;;;;;27.43;41.58;98741.34;5071833;28;20041;-92
2022/06/01 09:49:54;;;;;;;15.68;5.25;;;;;;;27.57;42.19;98740.03;5071403;28;20062;-96
2022/06/01 09:52:26;;;;;;;14.88;4.90;;;;;;;27.87;41.77;98741.63;5071912;28;20382;-92
2022/06/01 09:54:55;;;;;;;14.23;4.82;;;;;;;28.27;40.98;98746.69;5071477;28;20055;-95
2022/06/01 09:57:25;;;;;;;12.57;4.63;;;;;;;28.47;40.81;98735.59;5072108;28;20590;-94
2022/06/01 10:06:05;;;;;;;14.25;4.72;;;;;;;28.20;41.42;98737.38;5088374;27;20375;-92
2022/06/01 10:08:31;;;;;;;12.38;5.05;;;;;;;28.09;42.18;98737.63;5072335;28;20040;-91
2022/06/01 10:11:00;;;;;;;13.88;5.25;;;;;;;28.13;41.61;98725.38;5071566;28;20044;-91
2022/06/01 10:13:29;;;;;;;;;;;;;;;28.51;41.36;98736.19;5071971;28;20043;-92
2022/06/01 10:16:00;;;;;;;15.50;4.90;;;;;;;28.51;39.96;98736.19;5071666;28;19921;-94
2022/06/01 10:18:31;;;;;;;13.77;5.00;;;;;;;28.01;40.97;98719.25;5071238;28;20096;-89
2022/06/01 10:21:03;;;;;;;13.07;4.78;;;;;;;27.86;41.99;98728.97;5070751;28;20099;-92
2022/06/01 10:23:38;;;;;;;15.13;5.63;;;;;;;27.91;43.07;98723.94;5070893;28;20095;-93
2022/06/01 10:26:10;;;;;;;12.90;5.00;;;;;;;28.34;41.60;98732.41;5073874;28;20059;-95
2022/06/01 10:28:40;;;;;;;10.38;4.85;;;;;;;28.52;41.00;98711.41;5067111;28;20090;-93
2022/06/01 10:31:17;;;;;;;9.80;4.47;;;;;;;28.57;41.90;98713.69;5072114;28;20429;-94
2022/06/01 10:33:47;;;;;;;10.85;4.22;;;;;;;28.95;39.94;98719.78;5070639;28;20110;-91
2022/06/01 10:36:16;;;;;;;11.95;4.20;;;;;;;29.03;37.95;98725.31;5068751;28;20048;-92
2022/06/01 10:38:50;;;;;;;10.52;4.22;;;;;;;28.91;39.22;98719.25;5071372;28;20556;-90
2022/06/01 10:41:21;;;;;;;8.77;4.28;;;;;;;28.80;38.00;98711.28;5071665;28;20048;-92
2022/06/01 10:43:54;;;;;;;12.50;4.00;;;;;;;28.82;38.45;98704.66;5076605;28;20048;-91
2022/06/01 10:46:47;;;;;;;12.55;5.00;;;;;;;29.03;38.43;98709.75;5072535;28;20047;-92
2022/06/01 10:49:29;;;;;;;10.32;3.97;;;;;;;29.07;37.21;98708.41;5071608;28;20055;-92
2022/06/01 10:52:03;;;;;;;11.38;4.05;;;;;;;29.25;35.72;98707.53;5066354;28;20037;-92
2022/06/01 10:54:38;;;;;;;10.90;4.10;;;;;;;29.11;35.49;98706.25;5071764;28;20037;-91
2022/06/01 10:57:09;;;;;;;12.60;4.10;;;;;;;29.24;36.55;98708.56;5069720;28;20029;-93
2022/06/01 10:59:35;;;;;;;10.10;3.95;;;;;;;28.97;35.94;98712.28;5070671;28;20047;-93
2022/06/01 11:02:16;;;;;;;7.63;3.80;;;;;;;29.15;36.51;98691.22;5071381;28;20048;-91
2022/06/01 11:05:09;;;;;;;7.88;3.80;;;;;;;29.29;36.31;98701.56;5065089;28;20045;-93
2022/06/01 11:08:01;;;;;;;9.45;3.90;;;;;;;29.61;34.65;98700.00;5070812;28;20047;-92
2022/06/01 11:10:38;;;;;;;10.93;4.30;;;;;;;29.46;35.89;98705.25;5067267;28;20568;-91
2022/06/01 11:13:18;;;;;;;10.18;3.65;;;;;;;29.52;35.57;98695.53;5070787;28;20493;-91
2022/06/01 11:15:56;;;;;;;9.75;3.60;;;;;;;29.62;34.57;98709.94;5065506;28;20068;-93
2022/06/01 11:18:38;;;;;;;10.35;4.13;;;;;;;29.77;35.17;98707.47;5059412;28;20041;-93
2022/06/01 11:21:14;;;;;;;8.88;4.20;;;;;;;29.42;34.90;98695.63;5055605;28;20052;-92
2022/06/01 11:24:11;;;;;;;9.55;3.70;;;;;;;29.39;35.21;98695.97;5058264;28;20121;-92
2022/06/01 11:26:55;;;;;;;10.00;3.97;;;;;;;28.77;35.05;98698.78;5056538;28;20053;-90
2022/06/01 11:29:47;;;;;;;11.27;4.20;;;;;;;29.00;35.33;98690.91;5055395;28;20582;-90
2022/06/01 11:32:17;;;;;;;9.95;4.00;;;;;;;29.28;36.28;98691.63;5056707;28;20052;-93
2022/06/01 11:34:48;;;;;;;10.23;4.53;;;;;;;29.55;35.66;98695.19;5056845;28;20049;-92
2022/06/01 11:37:18;;;;;;;9.90;4.55;;;;;;;29.82;36.29;98696.88;5056381;28;20128;-90
2022/06/01 11:39:51;;;;;;;9.68;4.10;;;;;;;30.02;34.90;98686.47;5050159;28;20505;-93
2022/06/01 11:42:26;;;;;;;12.52;4.18;;;;;;;29.96;35.37;98689.88;5055853;28;20072;-92
2022/06/01 11:44:55;;;;;;;12.25;4.20;;;;;;;29.75;35.58;98686.72;5055932;28;20033;-90
2022/06/01 11:47:22;;;;;;;7.35;4.07;;;;;;;29.80;35.61;98682.47;5056880;28;20453;-91
2022/06/01 11:50:04;;;;;;;8.90;3.97;;;;;;;30.16;36.13;98681.34;5055959;28;20041;-91
2022/06/01 11:52:33;;;;;;;7.95;3.90;;;;;;;30.00;34.19;98671.22;5055196;28;20506;-92
2022/06/01 11:55:39;;;;;;;9.00;3.80;;;;;;;29.83;34.59;98682.13;5058117;28;20049;-91
2022/06/01 11:58:09;;;;;;;8.60;3.72;;;;;;;30.22;35.31;98680.69;5031000;28;20473;-91
2022/06/01 12:00:40;;;;;;;11.02;4.03;;;;;;;30.16;34.19;98670.38;5056620;28;20037;-93
2022/06/01 12:03:34;;;;;;;10.05;3.83;;;;;;;30.16;33.87;98682.19;5054705;28;20041;-92